sensor_id;sensor_type;location;lat;lon;timestamp;P1;durP1;ratioP1;P2;durP2;ratioP2
19587;SDS011;9940;47.252;8.696;2023-04-24T00:00:46;0.95;;;0.75;;
19587;SDS011;9940;47.252;8.696;2023-04-24T00:03:15;0.95;;;0.60;;
19587;SDS011;9940;47.252;8.696;2023-04-24T00:05:48;1.00;;;0.50;;
19587;SDS011;9940;47.252;8.696;2023-04-24T00:08:16;0.80;;;0.60;;
19587;SDS011;9940;47.252;8.696;2023-04-24T00:10:42;1.60;;;0.70;;
19587;SDS011;9940;47.252;8.696;2023-04-24T00:13:08;0.82;;;0.60;;
19587;SDS011;9940;47.252;8.696;2023-04-24T00:15:33;1.27;;;0.65;;
19587;SDS011;9940;47.252;8.696;2023-04-24T00:17:59;1.17;;;0.60;;
19587;SDS011;9940;47.252;8.696;2023-04-24T00:20:27;1.95;;;0.60;;
19587;SDS011;9940;47.252;8.696;2023-04-24T00:22:54;0.55;;;0.50;;
19587;SDS011;9940;47.252;8.696;2023-04-24T00:25:20;0.40;;;0.40;;
19587;SDS011;9940;47.252;8.696;2023-04-24T00:27:48;2.42;;;0.60;;
19587;SDS011;9940;47.252;8.696;2023-04-24T00:30:14;0.57;;;0.50;;
19587;SDS011;9940;47.252;8.696;2023-04-24T00:32:39;0.35;;;0.32;;
19587;SDS011;9940;47.252;8.696;2023-04-24T00:35:05;2.63;;;0.85;;
19587;SDS011;9940;47.252;8.696;2023-04-24T00:37:34;1.10;;;0.50;;
19587;SDS011;9940;47.252;8.696;2023-04-24T00:39:59;1.55;;;0.20;;
19587;SDS011;9940;47.252;8.696;2023-04-24T00:42:27;0.40;;;0.20;;
19587;SDS011;9940;47.252;8.696;2023-04-24T00:44:53;0.85;;;0.30;;
19587;SDS011;9940;47.252;8.696;2023-04-24T00:47:19;0.45;;;0.30;;
19587;SDS011;9940;47.252;8.696;2023-04-24T00:49:48;0.38;;;0.20;;
19587;SDS011;9940;47.252;8.696;2023-04-24T00:52:13;2.22;;;0.45;;
19587;SDS011;9940;47.252;8.696;2023-04-24T00:54:44;0.38;;;0.20;;
19587;SDS011;9940;47.252;8.696;2023-04-24T00:57:10;1.05;;;0.28;;
19587;SDS011;9940;47.252;8.696;2023-04-24T00:59:38;1.35;;;0.35;;
19587;SDS011;9940;47.252;8.696;2023-04-24T01:02:06;1.30;;;0.30;;
19587;SDS011;9940;47.252;8.696;2023-04-24T01:04:32;0.17;;;0.13;;
19587;SDS011;9940;47.252;8.696;2023-04-24T01:06:58;0.10;;;0.10;;
19587;SDS011;9940;47.252;8.696;2023-04-24T01:09:23;0.35;;;0.13;;
19587;SDS011;9940;47.252;8.696;2023-04-24T01:11:49;1.23;;;0.20;;
19587;SDS011;9940;47.252;8.696;2023-04-24T01:14:16;0.10;;;0.10;;
19587;SDS011;9940;47.252;8.696;2023-04-24T01:16:44;0.32;;;0.20;;
19587;SDS011;9940;47.252;8.696;2023-04-24T01:19:09;0.22;;;0.10;;
19587;SDS011;9940;47.252;8.696;2023-04-24T01:21:39;0.20;;;0.20;;
19587;SDS011;9940;47.252;8.696;2023-04-24T01:24:07;0.65;;;0.10;;
19587;SDS011;9940;47.252;8.696;2023-04-24T01:26:32;0.20;;;0.20;;
19587;SDS011;9940;47.252;8.696;2023-04-24T01:29:03;1.10;;;0.10;;
19587;SDS011;9940;47.252;8.696;2023-04-24T01:31:28;0.55;;;0.30;;
19587;SDS011;9940;47.252;8.696;2023-04-24T01:33:55;0.20;;;0.20;;
19587;SDS011;9940;47.252;8.696;2023-04-24T01:36:21;0.30;;;0.20;;
19587;SDS011;9940;47.252;8.696;2023-04-24T01:38:48;0.20;;;0.20;;
19587;SDS011;9940;47.252;8.696;2023-04-24T01:41:14;0.20;;;0.20;;
19587;SDS011;9940;47.252;8.696;2023-04-24T01:43:46;1.45;;;0.20;;
19587;SDS011;9940;47.252;8.696;2023-04-24T01:46:12;0.32;;;0.30;;
19587;SDS011;9940;47.252;8.696;2023-04-24T01:48:37;0.77;;;0.20;;
19587;SDS011;9940;47.252;8.696;2023-04-24T01:51:03;0.20;;;0.17;;
19587;SDS011;9940;47.252;8.696;2023-04-24T01:53:29;0.20;;;0.20;;
19587;SDS011;9940;47.252;8.696;2023-04-24T01:55:54;0.90;;;0.10;;
19587;SDS011;9940;47.252;8.696;2023-04-24T01:58:22;0.45;;;0.30;;
19587;SDS011;9940;47.252;8.696;2023-04-24T02:00:48;0.45;;;0.45;;
19587;SDS011;9940;47.252;8.696;2023-04-24T02:03:14;0.30;;;0.20;;
19587;SDS011;9940;47.252;8.696;2023-04-24T02:05:42;0.20;;;0.20;;
19587;SDS011;9940;47.252;8.696;2023-04-24T02:08:09;0.63;;;0.40;;
19587;SDS011;9940;47.252;8.696;2023-04-24T02:10:40;0.20;;;0.20;;
19587;SDS011;9940;47.252;8.696;2023-04-24T02:13:08;0.22;;;0.22;;
19587;SDS011;9940;47.252;8.696;2023-04-24T02:15:35;2.38;;;0.30;;
19587;SDS011;9940;47.252;8.696;2023-04-24T02:18:03;0.30;;;0.30;;
19587;SDS011;9940;47.252;8.696;2023-04-24T02:20:29;1.45;;;0.32;;
19587;SDS011;9940;47.252;8.696;2023-04-24T02:22:54;0.45;;;0.20;;
19587;SDS011;9940;47.252;8.696;2023-04-24T02:25:23;2.65;;;0.50;;
19587;SDS011;9940;47.252;8.696;2023-04-24T02:27:51;0.85;;;0.20;;
19587;SDS011;9940;47.252;8.696;2023-04-24T02:30:16;0.30;;;0.20;;
19587;SDS011;9940;47.252;8.696;2023-04-24T02:32:42;0.30;;;0.30;;
19587;SDS011;9940;47.252;8.696;2023-04-24T02:35:08;0.20;;;0.20;;
19587;SDS011;9940;47.252;8.696;2023-04-24T02:37:34;0.55;;;0.30;;
19587;SDS011;9940;47.252;8.696;2023-04-24T02:40:02;0.68;;;0.30;;
19587;SDS011;9940;47.252;8.696;2023-04-24T02:42:28;0.10;;;0.10;;
19587;SDS011;9940;47.252;8.696;2023-04-24T02:44:53;0.45;;;0.30;;
19587;SDS011;9940;47.252;8.696;2023-04-24T02:47:19;0.20;;;0.20;;
19587;SDS011;9940;47.252;8.696;2023-04-24T02:49:44;0.43;;;0.30;;
19587;SDS011;9940;47.252;8.696;2023-04-24T02:52:10;0.25;;;0.20;;
19587;SDS011;9940;47.252;8.696;2023-04-24T02:54:35;0.20;;;0.20;;
19587;SDS011;9940;47.252;8.696;2023-04-24T02:57:03;0.20;;;0.20;;
19587;SDS011;9940;47.252;8.696;2023-04-24T02:59:31;0.20;;;0.20;;
19587;SDS011;9940;47.252;8.696;2023-04-24T03:01:59;0.10;;;0.10;;
19587;SDS011;9940;47.252;8.696;2023-04-24T03:04:25;0.20;;;0.10;;
19587;SDS011;9940;47.252;8.696;2023-04-24T03:06:53;0.10;;;0.10;;
19587;SDS011;9940;47.252;8.696;2023-04-24T03:09:20;0.00;;;0.00;;
19587;SDS011;9940;47.252;8.696;2023-04-24T03:11:46;0.20;;;0.00;;
19587;SDS011;9940;47.252;8.696;2023-04-24T03:14:12;0.08;;;0.08;;
19587;SDS011;9940;47.252;8.696;2023-04-24T03:16:39;0.00;;;0.00;;
19587;SDS011;9940;47.252;8.696;2023-04-24T03:19:07;0.55;;;0.17;;
19587;SDS011;9940;47.252;8.696;2023-04-24T03:21:33;0.00;;;0.00;;
19587;SDS011;9940;47.252;8.696;2023-04-24T03:24:00;0.00;;;0.00;;
19587;SDS011;9940;47.252;8.696;2023-04-24T03:26:28;0.10;;;0.10;;
19587;SDS011;9940;47.252;8.696;2023-04-24T03:28:54;0.03;;;0.00;;
19587;SDS011;9940;47.252;8.696;2023-04-24T03:31:19;0.10;;;0.10;;
19587;SDS011;9940;47.252;8.696;2023-04-24T03:33:46;0.10;;;0.10;;
19587;SDS011;9940;47.252;8.696;2023-04-24T03:36:14;0.00;;;0.00;;
19587;SDS011;9940;47.252;8.696;2023-04-24T03:38:40;0.00;;;0.00;;
19587;SDS011;9940;47.252;8.696;2023-04-24T03:41:05;0.00;;;0.00;;
19587;SDS011;9940;47.252;8.696;2023-04-24T03:43:33;0.05;;;0.00;;
19587;SDS011;9940;47.252;8.696;2023-04-24T03:45:59;0.00;;;0.00;;
19587;SDS011;9940;47.252;8.696;2023-04-24T03:48:25;0.52;;;0.03;;
19587;SDS011;9940;47.252;8.696;2023-04-24T03:50:53;0.32;;;0.10;;
19587;SDS011;9940;47.252;8.696;2023-04-24T03:53:21;0.43;;;0.10;;
19587;SDS011;9940;47.252;8.696;2023-04-24T03:55:46;0.10;;;0.10;;
19587;SDS011;9940;47.252;8.696;2023-04-24T03:58:12;0.25;;;0.05;;
19587;SDS011;9940;47.252;8.696;2023-04-24T04:00:40;0.28;;;0.00;;
19587;SDS011;9940;47.252;8.696;2023-04-24T04:03:09;0.20;;;0.00;;
19587;SDS011;9940;47.252;8.696;2023-04-24T04:05:40;0.00;;;0.00;;
19587;SDS011;9940;47.252;8.696;2023-04-24T04:08:06;0.15;;;0.00;;
19587;SDS011;9940;47.252;8.696;2023-04-24T04:10:32;0.52;;;0.00;;
19587;SDS011;9940;47.252;8.696;2023-04-24T04:12:57;0.05;;;0.05;;
19587;SDS011;9940;47.252;8.696;2023-04-24T04:15:23;0.13;;;0.00;;
19587;SDS011;9940;47.252;8.696;2023-04-24T04:17:48;0.00;;;0.00;;
19587;SDS011;9940;47.252;8.696;2023-04-24T04:20:14;0.10;;;0.00;;
19587;SDS011;9940;47.252;8.696;2023-04-24T04:22:42;1.08;;;0.10;;
19587;SDS011;9940;47.252;8.696;2023-04-24T04:25:08;0.10;;;0.00;;
19587;SDS011;9940;47.252;8.696;2023-04-24T04:27:33;0.00;;;0.00;;
19587;SDS011;9940;47.252;8.696;2023-04-24T04:30:02;0.15;;;0.00;;
19587;SDS011;9940;47.252;8.696;2023-04-24T04:32:33;0.10;;;0.00;;
19587;SDS011;9940;47.252;8.696;2023-04-24T04:35:00;0.17;;;0.08;;
19587;SDS011;9940;47.252;8.696;2023-04-24T04:37:29;0.10;;;0.10;;
19587;SDS011;9940;47.252;8.696;2023-04-24T04:39:58;0.20;;;0.03;;
19587;SDS011;9940;47.252;8.696;2023-04-24T04:42:25;0.00;;;0.00;;
19587;SDS011;9940;47.252;8.696;2023-04-24T04:44:54;0.52;;;0.10;;
19587;SDS011;9940;47.252;8.696;2023-04-24T04:47:22;2.80;;;0.17;;
19587;SDS011;9940;47.252;8.696;2023-04-24T04:49:48;0.77;;;0.10;;
19587;SDS011;9940;47.252;8.696;2023-04-24T04:52:14;0.50;;;0.20;;
19587;SDS011;9940;47.252;8.696;2023-04-24T04:54:41;1.60;;;0.10;;
19587;SDS011;9940;47.252;8.696;2023-04-24T04:57:07;0.10;;;0.10;;
19587;SDS011;9940;47.252;8.696;2023-04-24T04:59:35;1.27;;;0.15;;
19587;SDS011;9940;47.252;8.696;2023-04-24T05:02:05;0.45;;;0.10;;
19587;SDS011;9940;47.252;8.696;2023-04-24T05:04:31;0.20;;;0.17;;
19587;SDS011;9940;47.252;8.696;2023-04-24T05:06:56;0.40;;;0.05;;
19587;SDS011;9940;47.252;8.696;2023-04-24T05:09:24;0.05;;;0.00;;
19587;SDS011;9940;47.252;8.696;2023-04-24T05:11:52;0.13;;;0.10;;
19587;SDS011;9940;47.252;8.696;2023-04-24T05:14:20;0.10;;;0.00;;
19587;SDS011;9940;47.252;8.696;2023-04-24T05:16:46;0.10;;;0.00;;
19587;SDS011;9940;47.252;8.696;2023-04-24T05:19:15;0.00;;;0.00;;
19587;SDS011;9940;47.252;8.696;2023-04-24T05:21:40;0.00;;;0.00;;
19587;SDS011;9940;47.252;8.696;2023-04-24T05:24:06;0.00;;;0.00;;
19587;SDS011;9940;47.252;8.696;2023-04-24T05:26:32;0.03;;;0.03;;
19587;SDS011;9940;47.252;8.696;2023-04-24T05:28:58;1.05;;;0.00;;
19587;SDS011;9940;47.252;8.696;2023-04-24T05:31:24;0.38;;;0.20;;
19587;SDS011;9940;47.252;8.696;2023-04-24T05:33:50;0.30;;;0.10;;
19587;SDS011;9940;47.252;8.696;2023-04-24T05:36:16;1.65;;;0.17;;
19587;SDS011;9940;47.252;8.696;2023-04-24T05:38:41;0.40;;;0.20;;
19587;SDS011;9940;47.252;8.696;2023-04-24T05:41:07;1.42;;;0.10;;
19587;SDS011;9940;47.252;8.696;2023-04-24T05:43:37;1.10;;;0.10;;
19587;SDS011;9940;47.252;8.696;2023-04-24T05:46:05;0.10;;;0.10;;
19587;SDS011;9940;47.252;8.696;2023-04-24T05:48:30;0.17;;;0.13;;
19587;SDS011;9940;47.252;8.696;2023-04-24T05:50:56;0.60;;;0.50;;
19587;SDS011;9940;47.252;8.696;2023-04-24T05:53:22;0.30;;;0.30;;
19587;SDS011;9940;47.252;8.696;2023-04-24T05:55:47;0.35;;;0.10;;
19587;SDS011;9940;47.252;8.696;2023-04-24T05:58:15;0.43;;;0.15;;
19587;SDS011;9940;47.252;8.696;2023-04-24T06:00:41;0.10;;;0.10;;
19587;SDS011;9940;47.252;8.696;2023-04-24T06:03:11;0.22;;;0.22;;
19587;SDS011;9940;47.252;8.696;2023-04-24T06:05:36;0.50;;;0.20;;
19587;SDS011;9940;47.252;8.696;2023-04-24T06:08:02;1.90;;;0.60;;
19587;SDS011;9940;47.252;8.696;2023-04-24T06:10:28;0.68;;;0.20;;
19587;SDS011;9940;47.252;8.696;2023-04-24T06:12:53;1.45;;;0.10;;
19587;SDS011;9940;47.252;8.696;2023-04-24T06:15:21;5.18;;;0.77;;
19587;SDS011;9940;47.252;8.696;2023-04-24T06:17:49;0.43;;;0.20;;
19587;SDS011;9940;47.252;8.696;2023-04-24T06:20:14;0.20;;;0.20;;
19587;SDS011;9940;47.252;8.696;2023-04-24T06:22:40;0.50;;;0.22;;
19587;SDS011;9940;47.252;8.696;2023-04-24T06:25:06;0.30;;;0.22;;
19587;SDS011;9940;47.252;8.696;2023-04-24T06:27:34;0.85;;;0.55;;
19587;SDS011;9940;47.252;8.696;2023-04-24T06:30:02;1.45;;;0.57;;
19587;SDS011;9940;47.252;8.696;2023-04-24T06:32:31;2.13;;;0.50;;
19587;SDS011;9940;47.252;8.696;2023-04-24T06:34:59;0.85;;;0.50;;
19587;SDS011;9940;47.252;8.696;2023-04-24T06:37:25;1.70;;;0.60;;
19587;SDS011;9940;47.252;8.696;2023-04-24T06:39:51;0.57;;;0.40;;
19587;SDS011;9940;47.252;8.696;2023-04-24T06:42:16;1.10;;;0.70;;
19587;SDS011;9940;47.252;8.696;2023-04-24T06:44:42;0.65;;;0.63;;
19587;SDS011;9940;47.252;8.696;2023-04-24T06:47:08;0.50;;;0.50;;
19587;SDS011;9940;47.252;8.696;2023-04-24T06:49:38;1.63;;;0.77;;
19587;SDS011;9940;47.252;8.696;2023-04-24T06:52:07;2.65;;;0.68;;
19587;SDS011;9940;47.252;8.696;2023-04-24T06:54:35;0.60;;;0.60;;
19587;SDS011;9940;47.252;8.696;2023-04-24T06:57:01;1.10;;;0.63;;
19587;SDS011;9940;47.252;8.696;2023-04-24T06:59:28;5.05;;;0.65;;
19587;SDS011;9940;47.252;8.696;2023-04-24T07:01:54;1.88;;;0.80;;
19587;SDS011;9940;47.252;8.696;2023-04-24T07:04:20;1.73;;;0.73;;
19587;SDS011;9940;47.252;8.696;2023-04-24T07:06:46;1.50;;;0.65;;
19587;SDS011;9940;47.252;8.696;2023-04-24T07:09:16;0.60;;;0.55;;
19587;SDS011;9940;47.252;8.696;2023-04-24T07:11:45;2.47;;;0.85;;
19587;SDS011;9940;47.252;8.696;2023-04-24T07:14:10;1.63;;;0.80;;
19587;SDS011;9940;47.252;8.696;2023-04-24T07:16:37;0.95;;;0.50;;
19587;SDS011;9940;47.252;8.696;2023-04-24T07:19:02;1.10;;;0.70;;
19587;SDS011;9940;47.252;8.696;2023-04-24T07:21:31;0.85;;;0.60;;
19587;SDS011;9940;47.252;8.696;2023-04-24T07:23:59;1.02;;;0.60;;
19587;SDS011;9940;47.252;8.696;2023-04-24T07:26:28;1.33;;;0.50;;
19587;SDS011;9940;47.252;8.696;2023-04-24T07:28:54;0.75;;;0.40;;
19587;SDS011;9940;47.252;8.696;2023-04-24T07:31:21;2.40;;;0.60;;
19587;SDS011;9940;47.252;8.696;2023-04-24T07:33:47;1.23;;;0.50;;
19587;SDS011;9940;47.252;8.696;2023-04-24T07:36:13;0.82;;;0.50;;
19587;SDS011;9940;47.252;8.696;2023-04-24T07:38:43;2.15;;;0.95;;
19587;SDS011;9940;47.252;8.696;2023-04-24T07:41:12;3.22;;;0.88;;
19587;SDS011;9940;47.252;8.696;2023-04-24T07:43:38;4.45;;;0.82;;
19587;SDS011;9940;47.252;8.696;2023-04-24T07:46:04;0.95;;;0.75;;
19587;SDS011;9940;47.252;8.696;2023-04-24T07:48:30;4.32;;;1.20;;
19587;SDS011;9940;47.252;8.696;2023-04-24T07:50:58;2.60;;;1.13;;
19587;SDS011;9940;47.252;8.696;2023-04-24T07:53:26;1.52;;;1.20;;
19587;SDS011;9940;47.252;8.696;2023-04-24T07:55:55;2.42;;;1.00;;
19587;SDS011;9940;47.252;8.696;2023-04-24T07:58:23;2.75;;;1.10;;
19587;SDS011;9940;47.252;8.696;2023-04-24T08:00:49;1.40;;;0.80;;
19587;SDS011;9940;47.252;8.696;2023-04-24T08:03:15;3.00;;;1.00;;
19587;SDS011;9940;47.252;8.696;2023-04-24T08:05:43;2.95;;;0.85;;
19587;SDS011;9940;47.252;8.696;2023-04-24T08:08:09;4.10;;;1.00;;
19587;SDS011;9940;47.252;8.696;2023-04-24T08:10:35;0.82;;;0.70;;
19587;SDS011;9940;47.252;8.696;2023-04-24T08:13:02;2.42;;;1.88;;
19587;SDS011;9940;47.252;8.696;2023-04-24T08:15:30;4.53;;;0.90;;
19587;SDS011;9940;47.252;8.696;2023-04-24T08:17:58;1.77;;;0.82;;
19587;SDS011;9940;47.252;8.696;2023-04-24T08:20:24;1.17;;;1.00;;
19587;SDS011;9940;47.252;8.696;2023-04-24T08:22:50;1.40;;;0.90;;
19587;SDS011;9940;47.252;8.696;2023-04-24T08:25:15;1.50;;;1.00;;
19587;SDS011;9940;47.252;8.696;2023-04-24T08:27:46;1.80;;;0.88;;
19587;SDS011;9940;47.252;8.696;2023-04-24T08:30:12;3.80;;;1.05;;
19587;SDS011;9940;47.252;8.696;2023-04-24T08:32:37;2.38;;;1.13;;
19587;SDS011;9940;47.252;8.696;2023-04-24T08:35:03;2.10;;;0.80;;
19587;SDS011;9940;47.252;8.696;2023-04-24T08:37:34;2.15;;;1.00;;
19587;SDS011;9940;47.252;8.696;2023-04-24T08:39:59;3.47;;;1.30;;
19587;SDS011;9940;47.252;8.696;2023-04-24T08:42:28;2.78;;;1.15;;
19587;SDS011;9940;47.252;8.696;2023-04-24T08:44:57;2.60;;;1.20;;
19587;SDS011;9940;47.252;8.696;2023-04-24T08:47:23;1.27;;;1.00;;
19587;SDS011;9940;47.252;8.696;2023-04-24T08:49:50;4.25;;;0.93;;
19587;SDS011;9940;47.252;8.696;2023-04-24T08:52:19;1.60;;;1.00;;
19587;SDS011;9940;47.252;8.696;2023-04-24T08:54:46;1.55;;;0.95;;
19587;SDS011;9940;47.252;8.696;2023-04-24T08:57:13;2.50;;;1.27;;
19587;SDS011;9940;47.252;8.696;2023-04-24T08:59:40;1.92;;;1.02;;
19587;SDS011;9940;47.252;8.696;2023-04-24T09:02:10;1.42;;;1.00;;
19587;SDS011;9940;47.252;8.696;2023-04-24T09:04:38;9.88;;;1.38;;
19587;SDS011;9940;47.252;8.696;2023-04-24T09:07:06;1.20;;;1.10;;
19587;SDS011;9940;47.252;8.696;2023-04-24T09:09:37;1.35;;;1.00;;
19587;SDS011;9940;47.252;8.696;2023-04-24T09:12:04;3.38;;;1.38;;
19587;SDS011;9940;47.252;8.696;2023-04-24T09:14:34;3.88;;;1.70;;
19587;SDS011;9940;47.252;8.696;2023-04-24T09:17:01;3.65;;;2.20;;
19587;SDS011;9940;47.252;8.696;2023-04-24T09:19:29;1.80;;;1.33;;
19587;SDS011;9940;47.252;8.696;2023-04-24T09:21:55;2.38;;;1.25;;
19587;SDS011;9940;47.252;8.696;2023-04-24T09:24:21;3.30;;;1.52;;
19587;SDS011;9940;47.252;8.696;2023-04-24T09:26:56;1.42;;;1.10;;
19587;SDS011;9940;47.252;8.696;2023-04-24T09:29:23;2.75;;;1.58;;
19587;SDS011;9940;47.252;8.696;2023-04-24T09:31:50;4.20;;;2.28;;
19587;SDS011;9940;47.252;8.696;2023-04-24T09:34:20;3.28;;;1.65;;
19587;SDS011;9940;47.252;8.696;2023-04-24T09:36:50;3.05;;;1.70;;
19587;SDS011;9940;47.252;8.696;2023-04-24T09:39:16;4.30;;;1.50;;
19587;SDS011;9940;47.252;8.696;2023-04-24T09:44:14;2.35;;;1.45;;
19587;SDS011;9940;47.252;8.696;2023-04-24T09:46:49;4.38;;;1.63;;
19587;SDS011;9940;47.252;8.696;2023-04-24T09:49:16;2.97;;;1.63;;
19587;SDS011;9940;47.252;8.696;2023-04-24T09:51:47;4.88;;;1.65;;
19587;SDS011;9940;47.252;8.696;2023-04-24T09:54:14;2.80;;;1.27;;
19587;SDS011;9940;47.252;8.696;2023-04-24T09:56:46;4.43;;;1.50;;
19587;SDS011;9940;47.252;8.696;2023-04-24T09:59:16;3.05;;;1.50;;
19587;SDS011;9940;47.252;8.696;2023-04-24T10:06:51;4.00;;;2.30;;
19587;SDS011;9940;47.252;8.696;2023-04-24T10:09:19;2.90;;;1.55;;
19587;SDS011;9940;47.252;8.696;2023-04-24T10:11:50;6.00;;;1.30;;
19587;SDS011;9940;47.252;8.696;2023-04-24T10:14:20;3.38;;;1.50;;
19587;SDS011;9940;47.252;8.696;2023-04-24T10:16:48;4.47;;;1.40;;
19587;SDS011;9940;47.252;8.696;2023-04-24T10:19:17;3.58;;;1.40;;
19587;SDS011;9940;47.252;8.696;2023-04-24T10:21:46;4.03;;;2.33;;
19587;SDS011;9940;47.252;8.696;2023-04-24T10:24:12;3.80;;;1.95;;
19587;SDS011;9940;47.252;8.696;2023-04-24T10:26:43;3.20;;;1.30;;
19587;SDS011;9940;47.252;8.696;2023-04-24T10:29:10;3.65;;;1.17;;
19587;SDS011;9940;47.252;8.696;2023-04-24T10:31:40;1.20;;;1.10;;
19587;SDS011;9940;47.252;8.696;2023-04-24T10:34:10;1.35;;;1.20;;
19587;SDS011;9940;47.252;8.696;2023-04-24T10:36:39;2.35;;;1.52;;
19587;SDS011;9940;47.252;8.696;2023-04-24T10:39:15;2.53;;;1.17;;
19587;SDS011;9940;47.252;8.696;2023-04-24T10:41:44;1.92;;;1.10;;
19587;SDS011;9940;47.252;8.696;2023-04-24T10:44:14;2.42;;;1.20;;
19587;SDS011;9940;47.252;8.696;2023-04-24T10:46:44;1.77;;;0.95;;
19587;SDS011;9940;47.252;8.696;2023-04-24T10:49:13;1.20;;;1.10;;
19587;SDS011;9940;47.252;8.696;2023-04-24T10:51:49;1.52;;;1.00;;
19587;SDS011;9940;47.252;8.696;2023-04-24T10:54:28;2.15;;;1.40;;
19587;SDS011;9940;47.252;8.696;2023-04-24T10:59:43;1.00;;;0.98;;
19587;SDS011;9940;47.252;8.696;2023-04-24T11:02:09;1.40;;;1.20;;
19587;SDS011;9940;47.252;8.696;2023-04-24T11:04:37;1.33;;;1.20;;
19587;SDS011;9940;47.252;8.696;2023-04-24T11:07:03;1.23;;;0.93;;
19587;SDS011;9940;47.252;8.696;2023-04-24T11:09:31;1.90;;;0.90;;
19587;SDS011;9940;47.252;8.696;2023-04-24T11:17:33;2.05;;;0.90;;
19587;SDS011;9940;47.252;8.696;2023-04-24T11:20:06;2.45;;;1.10;;
19587;SDS011;9940;47.252;8.696;2023-04-24T11:22:34;2.95;;;1.00;;
19587;SDS011;9940;47.252;8.696;2023-04-24T11:25:03;1.20;;;1.10;;
19587;SDS011;9940;47.252;8.696;2023-04-24T11:27:30;1.52;;;1.10;;
19587;SDS011;9940;47.252;8.696;2023-04-24T11:37:30;3.03;;;1.13;;
19587;SDS011;9940;47.252;8.696;2023-04-24T11:40:00;1.13;;;0.90;;
19587;SDS011;9940;47.252;8.696;2023-04-24T11:42:26;1.15;;;1.05;;
19587;SDS011;9940;47.252;8.696;2023-04-24T11:44:53;1.90;;;1.10;;
19587;SDS011;9940;47.252;8.696;2023-04-24T11:47:27;1.30;;;1.20;;
19587;SDS011;9940;47.252;8.696;2023-04-24T11:49:55;1.33;;;1.23;;
19587;SDS011;9940;47.252;8.696;2023-04-24T11:52:21;2.72;;;1.40;;
19587;SDS011;9940;47.252;8.696;2023-04-24T11:54:50;1.90;;;1.55;;
19587;SDS011;9940;47.252;8.696;2023-04-24T11:57:16;1.88;;;1.50;;
19587;SDS011;9940;47.252;8.696;2023-04-24T11:59:43;2.40;;;1.60;;
19587;SDS011;9940;47.252;8.696;2023-04-24T12:02:21;2.05;;;1.33;;
19587;SDS011;9940;47.252;8.696;2023-04-24T12:04:48;2.75;;;1.30;;
19587;SDS011;9940;47.252;8.696;2023-04-24T12:07:14;2.83;;;1.15;;
19587;SDS011;9940;47.252;8.696;2023-04-24T12:09:46;2.85;;;1.60;;
19587;SDS011;9940;47.252;8.696;2023-04-24T12:12:19;1.73;;;1.35;;
19587;SDS011;9940;47.252;8.696;2023-04-24T12:14:56;1.30;;;1.20;;
19587;SDS011;9940;47.252;8.696;2023-04-24T12:17:29;4.55;;;1.65;;
19587;SDS011;9940;47.252;8.696;2023-04-24T12:20:08;1.48;;;1.38;;
19587;SDS011;9940;47.252;8.696;2023-04-24T12:22:44;3.85;;;1.52;;
19587;SDS011;9940;47.252;8.696;2023-04-24T12:25:23;1.58;;;1.42;;
19587;SDS011;9940;47.252;8.696;2023-04-24T12:27:57;6.45;;;1.88;;
19587;SDS011;9940;47.252;8.696;2023-04-24T12:30:42;2.22;;;1.58;;
19587;SDS011;9940;47.252;8.696;2023-04-24T12:33:16;2.35;;;1.48;;
19587;SDS011;9940;47.252;8.696;2023-04-24T12:35:48;2.80;;;1.48;;
19587;SDS011;9940;47.252;8.696;2023-04-24T12:38:21;1.95;;;1.40;;
19587;SDS011;9940;47.252;8.696;2023-04-24T12:41:00;1.88;;;1.35;;
19587;SDS011;9940;47.252;8.696;2023-04-24T12:43:33;1.35;;;1.25;;
19587;SDS011;9940;47.252;8.696;2023-04-24T12:46:01;2.17;;;1.48;;
19587;SDS011;9940;47.252;8.696;2023-04-24T12:48:28;2.38;;;2.17;;
19587;SDS011;9940;47.252;8.696;2023-04-24T12:50:54;1.83;;;1.73;;
19587;SDS011;9940;47.252;8.696;2023-04-24T12:53:22;1.60;;;1.50;;
19587;SDS011;9940;47.252;8.696;2023-04-24T12:55:47;9.15;;;2.90;;
19587;SDS011;9940;47.252;8.696;2023-04-24T12:58:23;2.20;;;2.00;;
19587;SDS011;9940;47.252;8.696;2023-04-24T13:00:51;2.65;;;2.30;;
19587;SDS011;9940;47.252;8.696;2023-04-24T13:03:17;2.10;;;1.80;;
19587;SDS011;9940;47.252;8.696;2023-04-24T13:05:43;1.83;;;1.48;;
19587;SDS011;9940;47.252;8.696;2023-04-24T13:08:11;2.10;;;1.38;;
19587;SDS011;9940;47.252;8.696;2023-04-24T13:10:40;2.28;;;1.50;;
19587;SDS011;9940;47.252;8.696;2023-04-24T13:13:06;1.88;;;1.45;;
19587;SDS011;9940;47.252;8.696;2023-04-24T13:15:32;1.65;;;1.42;;
19587;SDS011;9940;47.252;8.696;2023-04-24T13:17:57;2.00;;;1.30;;
19587;SDS011;9940;47.252;8.696;2023-04-24T13:20:23;5.72;;;1.92;;
19587;SDS011;9940;47.252;8.696;2023-04-24T13:22:49;2.42;;;1.52;;
19587;SDS011;9940;47.252;8.696;2023-04-24T13:25:19;4.38;;;1.40;;
19587;SDS011;9940;47.252;8.696;2023-04-24T13:27:47;2.45;;;1.50;;
19587;SDS011;9940;47.252;8.696;2023-04-24T13:30:13;2.78;;;1.30;;
19587;SDS011;9940;47.252;8.696;2023-04-24T13:32:39;1.30;;;1.20;;
19587;SDS011;9940;47.252;8.696;2023-04-24T13:35:09;1.35;;;1.25;;
19587;SDS011;9940;47.252;8.696;2023-04-24T13:37:35;2.65;;;1.50;;
19587;SDS011;9940;47.252;8.696;2023-04-24T13:40:00;2.42;;;1.30;;
19587;SDS011;9940;47.252;8.696;2023-04-24T13:42:27;3.33;;;1.42;;
19587;SDS011;9940;47.252;8.696;2023-04-24T13:44:55;3.20;;;1.35;;
19587;SDS011;9940;47.252;8.696;2023-04-24T13:47:20;4.78;;;2.50;;
19587;SDS011;9940;47.252;8.696;2023-04-24T13:49:48;4.28;;;1.38;;
19587;SDS011;9940;47.252;8.696;2023-04-24T13:52:14;2.33;;;1.67;;
19587;SDS011;9940;47.252;8.696;2023-04-24T13:54:42;3.42;;;1.40;;
19587;SDS011;9940;47.252;8.696;2023-04-24T13:57:10;1.60;;;1.50;;
19587;SDS011;9940;47.252;8.696;2023-04-24T13:59:38;2.22;;;1.35;;
19587;SDS011;9940;47.252;8.696;2023-04-24T14:02:09;1.70;;;1.33;;
19587;SDS011;9940;47.252;8.696;2023-04-24T14:04:39;3.20;;;1.20;;
19587;SDS011;9940;47.252;8.696;2023-04-24T14:07:05;1.73;;;1.63;;
19587;SDS011;9940;47.252;8.696;2023-04-24T14:09:33;3.53;;;1.58;;
19587;SDS011;9940;47.252;8.696;2023-04-24T14:12:00;2.50;;;1.65;;
19587;SDS011;9940;47.252;8.696;2023-04-24T14:14:29;1.85;;;1.40;;
19587;SDS011;9940;47.252;8.696;2023-04-24T14:16:55;3.90;;;1.70;;
19587;SDS011;9940;47.252;8.696;2023-04-24T14:19:20;1.73;;;1.60;;
19587;SDS011;9940;47.252;8.696;2023-04-24T14:21:46;1.80;;;1.40;;
19587;SDS011;9940;47.252;8.696;2023-04-24T14:24:12;1.70;;;1.55;;
19587;SDS011;9940;47.252;8.696;2023-04-24T14:26:40;2.72;;;1.80;;
19587;SDS011;9940;47.252;8.696;2023-04-24T14:29:08;2.40;;;2.30;;
19587;SDS011;9940;47.252;8.696;2023-04-24T14:31:34;1.90;;;1.80;;
19587;SDS011;9940;47.252;8.696;2023-04-24T14:34:00;4.07;;;2.13;;
19587;SDS011;9940;47.252;8.696;2023-04-24T14:36:25;2.97;;;2.63;;
19587;SDS011;9940;47.252;8.696;2023-04-24T14:38:51;3.00;;;2.80;;
19587;SDS011;9940;47.252;8.696;2023-04-24T14:41:17;2.42;;;2.08;;
19587;SDS011;9940;47.252;8.696;2023-04-24T14:43:42;1.98;;;1.80;;
19587;SDS011;9940;47.252;8.696;2023-04-24T14:46:10;2.33;;;2.13;;
19587;SDS011;9940;47.252;8.696;2023-04-24T14:48:36;2.20;;;1.55;;
19587;SDS011;9940;47.252;8.696;2023-04-24T14:51:01;2.08;;;1.63;;
19587;SDS011;9940;47.252;8.696;2023-04-24T14:53:27;1.80;;;1.50;;
19587;SDS011;9940;47.252;8.696;2023-04-24T14:55:53;2.28;;;1.50;;
19587;SDS011;9940;47.252;8.696;2023-04-24T14:58:23;4.45;;;1.50;;
19587;SDS011;9940;47.252;8.696;2023-04-24T15:00:51;3.28;;;1.60;;
19587;SDS011;9940;47.252;8.696;2023-04-24T15:03:19;2.90;;;1.67;;
19587;SDS011;9940;47.252;8.696;2023-04-24T15:05:48;3.08;;;2.15;;
19587;SDS011;9940;47.252;8.696;2023-04-24T15:08:13;4.13;;;2.63;;
19587;SDS011;9940;47.252;8.696;2023-04-24T15:10:41;3.85;;;3.60;;
19587;SDS011;9940;47.252;8.696;2023-04-24T15:13:07;7.18;;;6.88;;
19587;SDS011;9940;47.252;8.696;2023-04-24T15:15:33;13.52;;;12.77;;
19587;SDS011;9940;47.252;8.696;2023-04-24T15:18:04;9.48;;;8.88;;
19587;SDS011;9940;47.252;8.696;2023-04-24T15:20:33;7.70;;;7.40;;
19587;SDS011;9940;47.252;8.696;2023-04-24T15:22:59;5.38;;;5.07;;
19587;SDS011;9940;47.252;8.696;2023-04-24T15:25:29;3.88;;;3.58;;